createdAt,value
2022-08-22T00:00:27.389Z,69.93
2022-08-22T00:01:26.368Z,67.68
2022-08-22T00:02:26.749Z,68.80
2022-08-22T00:02:46.449Z,64.94
2022-08-22T00:02:46.509Z,63.81
2022-08-22T00:02:54.798Z,66.71
2022-08-22T00:03:00.472Z,59.14
2022-08-22T00:03:01.689Z,66.39
2022-08-22T00:03:04.187Z,66.39
2022-08-22T00:03:06.628Z,66.23
2022-08-22T00:03:07.042Z,69.93
2022-08-22T00:03:10.387Z,68.64
2022-08-22T00:03:26.347Z,64.61
2022-08-22T00:04:26.351Z,70.09
2022-08-22T00:05:26.318Z,69.61
2022-08-22T00:06:26.314Z,64.61
2022-08-22T00:07:26.308Z,69.13
2022-08-22T00:08:26.321Z,67.51
2022-08-22T00:09:26.285Z,71.70
2022-08-22T00:10:26.313Z,66.71
2022-08-22T00:11:26.272Z,65.58
2022-08-22T00:12:26.273Z,62.52
2022-08-22T00:13:26.261Z,68.32
2022-08-22T00:14:26.247Z,63.16
2022-08-22T00:15:42.365Z,66.87
2022-08-22T00:16:27.281Z,63.65
2022-08-22T00:17:26.229Z,66.06
2022-08-22T00:18:26.221Z,69.13
2022-08-22T00:19:26.235Z,67.03
2022-08-22T00:20:28.066Z,67.51
2022-08-22T00:21:26.194Z,70.42
2022-08-22T00:22:26.176Z,67.19
2022-08-22T00:23:26.186Z,68.64
2022-08-22T00:24:26.162Z,68.48
2022-08-22T00:25:26.385Z,70.74
2022-08-22T00:26:26.154Z,64.45
2022-08-22T00:27:26.133Z,72.51
2022-08-22T00:28:26.137Z,66.87
2022-08-22T00:29:26.119Z,69.93
2022-08-22T00:30:26.125Z,62.68
2022-08-22T00:31:26.127Z,67.51
2022-08-22T00:32:26.113Z,67.84
2022-08-22T00:33:26.091Z,64.94
2022-08-22T00:34:26.431Z,68.96
2022-08-22T00:35:26.073Z,71.38
2022-08-22T00:36:26.077Z,68.96
2022-08-22T00:37:26.053Z,68.96
2022-08-22T00:38:26.039Z,60.10
2022-08-22T00:39:26.046Z,65.26
2022-08-22T00:40:26.030Z,68.48
2022-08-22T00:41:26.309Z,66.23
2022-08-22T00:42:31.619Z,66.55
2022-08-22T00:43:27.023Z,69.93
2022-08-22T00:44:25.990Z,67.35
2022-08-22T00:45:25.988Z,68.16
2022-08-22T00:46:25.976Z,69.45
2022-08-22T00:47:25.970Z,66.23
2022-08-22T00:48:25.985Z,68.32
2022-08-22T00:49:27.169Z,68.80
2022-08-22T00:50:25.951Z,65.74
2022-08-22T00:51:25.936Z,68.16
2022-08-22T00:52:25.919Z,69.13
2022-08-22T00:53:25.917Z,64.61
2022-08-22T00:54:25.931Z,66.06
2022-08-22T00:55:25.895Z,65.42
2022-08-22T00:56:25.900Z,65.58
2022-08-22T00:57:25.895Z,64.61
2022-08-22T00:58:25.873Z,66.87
2022-08-22T00:59:25.858Z,64.61
2022-08-22T01:00:25.854Z,67.51
2022-08-22T01:01:25.878Z,66.23
2022-08-22T01:02:25.841Z,69.29
2022-08-22T01:03:25.856Z,67.35
2022-08-22T01:04:25.824Z,69.45
2022-08-22T01:05:25.856Z,65.58
2022-08-22T01:06:25.801Z,68.96
2022-08-22T01:07:25.801Z,67.51
2022-08-22T01:08:26.785Z,66.39
2022-08-22T01:09:25.778Z,67.35
2022-08-22T01:10:25.788Z,67.84
2022-08-22T01:11:25.758Z,66.23
2022-08-22T01:12:25.737Z,65.74
2022-08-22T01:13:25.743Z,69.77
2022-08-22T01:14:34.665Z,68.80
2022-08-22T01:15:26.744Z,70.90
2022-08-22T01:16:25.735Z,68.00
2022-08-22T01:17:25.718Z,68.16
2022-08-22T01:18:25.690Z,68.80
2022-08-22T01:19:25.696Z,68.00
2022-08-22T01:20:25.679Z,68.00
2022-08-22T01:21:25.672Z,68.16
2022-08-22T01:22:25.688Z,66.23
2022-08-22T01:23:25.661Z,67.51
2022-08-22T01:24:25.647Z,68.48
2022-08-22T01:25:26.124Z,67.68
2022-08-22T01:26:25.710Z,67.19
2022-08-22T01:27:25.609Z,71.06
2022-08-22T01:28:25.623Z,68.16
2022-08-22T01:29:28.519Z,67.68
2022-08-22T01:30:25.606Z,69.13
2022-08-22T01:31:25.579Z,66.71
2022-08-22T01:32:25.571Z,69.45
2022-08-22T01:33:25.590Z,68.64
2022-08-22T01:34:25.579Z,67.51
2022-08-22T01:35:25.550Z,67.51
2022-08-22T01:36:25.538Z,67.03
2022-08-22T01:37:25.535Z,69.29
2022-08-22T01:38:25.522Z,69.77
2022-08-22T01:39:25.542Z,66.71
2022-08-22T01:40:25.509Z,71.06
2022-08-22T01:41:25.505Z,66.23
2022-08-22T01:42:25.493Z,67.35
2022-08-22T01:43:59.182Z,69.13
2022-08-22T01:44:26.492Z,71.70
2022-08-22T01:45:25.488Z,68.32
2022-08-22T01:46:25.457Z,70.09
2022-08-22T01:47:25.441Z,71.70
2022-08-22T01:48:25.440Z,67.51
2022-08-22T01:49:25.431Z,67.03
2022-08-22T01:50:25.429Z,70.42
2022-08-22T01:51:25.427Z,66.55
2022-08-22T01:52:25.405Z,65.74
2022-08-22T01:53:25.403Z,67.68
2022-08-22T01:54:25.408Z,67.19
2022-08-22T01:55:25.388Z,70.74
2022-08-22T01:56:25.400Z,68.80
2022-08-22T01:57:25.372Z,68.32
2022-08-22T01:58:25.352Z,67.51
2022-08-22T01:59:25.393Z,73.15
2022-08-22T02:00:35.049Z,68.16
2022-08-22T02:01:26.379Z,67.03
2022-08-22T02:02:25.332Z,69.61
2022-08-22T02:03:25.314Z,68.00
2022-08-22T02:04:25.304Z,67.68
2022-08-22T02:05:25.306Z,68.96
2022-08-22T02:06:25.290Z,67.03
2022-08-22T02:07:29.150Z,69.45
2022-08-22T02:08:26.281Z,66.06
2022-08-22T02:09:25.278Z,69.13
2022-08-22T02:10:25.285Z,66.71
2022-08-22T02:11:25.259Z,70.25
2022-08-22T02:12:25.257Z,66.39
2022-08-22T02:13:25.261Z,66.87
2022-08-22T02:14:25.232Z,68.32
2022-08-22T02:15:25.242Z,68.00
2022-08-22T02:16:25.220Z,67.68
2022-08-22T02:17:25.206Z,63.97
2022-08-22T02:18:25.193Z,67.19
2022-08-22T02:19:25.189Z,68.16
2022-08-22T02:20:25.178Z,67.51
2022-08-22T02:21:25.198Z,72.03
2022-08-22T02:22:25.271Z,65.58
2022-08-22T02:23:25.155Z,67.51
2022-08-22T02:24:25.167Z,65.42
2022-08-22T02:25:25.140Z,66.39
2022-08-22T02:26:25.152Z,68.96
2022-08-22T02:27:25.126Z,68.80
2022-08-22T02:28:26.119Z,66.23
2022-08-22T02:29:25.117Z,65.58
2022-08-22T02:30:25.109Z,67.51
2022-08-22T02:31:25.118Z,68.00
2022-08-22T02:32:25.110Z,67.19
2022-08-22T02:33:25.094Z,66.87
2022-08-22T02:34:25.093Z,65.90
2022-08-22T02:35:25.098Z,66.23
2022-08-22T02:36:25.068Z,68.32
2022-08-22T02:37:25.099Z,65.42
2022-08-22T02:38:25.038Z,68.16
2022-08-22T02:39:25.035Z,63.65
2022-08-22T02:40:25.086Z,68.32
2022-08-22T02:41:25.124Z,66.71
2022-08-22T02:42:25.001Z,67.68
2022-08-22T02:43:25.024Z,66.87
2022-08-22T02:44:24.981Z,66.39
2022-08-22T02:45:25.043Z,66.06
2022-08-22T02:46:24.970Z,69.13
2022-08-22T02:47:24.956Z,68.96
2022-08-22T02:48:26.347Z,69.13
2022-08-22T02:49:27.489Z,68.80
2022-08-22T02:50:24.969Z,68.80
2022-08-22T02:51:24.951Z,68.80
2022-08-22T02:52:24.926Z,69.13
2022-08-22T02:53:24.912Z,67.19
2022-08-22T02:54:24.931Z,69.29
2022-08-22T02:55:24.904Z,69.13
2022-08-22T02:56:24.899Z,68.96
2022-08-22T02:57:25.558Z,69.93
2022-08-22T02:58:24.883Z,68.96
2022-08-22T02:59:24.871Z,69.93
2022-08-22T03:00:30.837Z,65.26
2022-08-22T03:01:25.872Z,68.16
2022-08-22T03:02:24.847Z,68.96
2022-08-22T03:03:24.832Z,68.48
2022-08-22T03:04:24.828Z,67.51
2022-08-22T03:05:24.823Z,69.13
2022-08-22T03:06:24.832Z,70.09
2022-08-22T03:07:24.830Z,69.93
2022-08-22T03:08:24.798Z,68.80
2022-08-22T03:09:24.795Z,69.61
2022-08-22T03:10:24.796Z,71.06
2022-08-22T03:11:24.789Z,67.19
2022-08-22T03:12:24.791Z,69.45
2022-08-22T03:13:24.771Z,68.96
2022-08-22T03:14:24.766Z,69.93
2022-08-22T03:15:24.749Z,70.09
2022-08-22T03:16:24.741Z,70.25
2022-08-22T03:17:24.733Z,67.68
2022-08-22T03:18:24.738Z,69.45
2022-08-22T03:19:24.709Z,69.61
2022-08-22T03:20:24.700Z,68.80
2022-08-22T03:21:24.704Z,68.48
2022-08-22T03:22:24.691Z,69.13
2022-08-22T03:23:24.682Z,68.32
2022-08-22T03:24:24.693Z,68.96
2022-08-22T03:25:24.668Z,69.61
2022-08-22T03:26:24.672Z,68.48
2022-08-22T03:27:32.624Z,69.77
2022-08-22T03:28:25.650Z,67.35
2022-08-22T03:29:24.639Z,69.13
2022-08-22T03:30:24.658Z,71.06
2022-08-22T03:31:24.630Z,70.09
2022-08-22T03:32:24.613Z,69.93
2022-08-22T03:33:24.629Z,72.03
2022-08-22T03:34:24.673Z,69.77
2022-08-22T03:35:24.596Z,69.93
2022-08-22T03:36:24.595Z,68.96
2022-08-22T03:37:24.569Z,66.87
2022-08-22T03:38:24.573Z,69.13
2022-08-22T03:39:24.588Z,68.48
2022-08-22T03:40:24.654Z,69.93
2022-08-22T03:41:25.557Z,67.51
2022-08-22T03:42:24.534Z,71.06
2022-08-22T03:43:24.532Z,68.16
2022-08-22T03:44:24.515Z,71.06
2022-08-22T03:45:24.533Z,68.00
2022-08-22T03:46:24.509Z,70.42
2022-08-22T03:47:24.490Z,67.35
2022-08-22T03:48:24.496Z,68.80
2022-08-22T03:49:24.497Z,70.25
2022-08-22T03:50:24.490Z,70.74
2022-08-22T03:51:24.498Z,69.29
2022-08-22T03:52:24.464Z,70.25
2022-08-22T03:53:24.453Z,69.13
2022-08-22T03:54:24.449Z,71.87
2022-08-22T03:55:25.434Z,71.54
2022-08-22T03:56:24.438Z,70.42
2022-08-22T03:57:24.449Z,68.64
2022-08-22T03:58:27.949Z,71.22
2022-08-22T03:59:24.421Z,68.16
2022-08-22T04:00:24.410Z,69.13
2022-08-22T04:01:24.392Z,70.42
2022-08-22T04:02:35.211Z,68.80
2022-08-22T04:03:25.409Z,68.16
2022-08-22T04:04:24.366Z,69.93
2022-08-22T04:05:24.437Z,70.74
2022-08-22T04:06:24.356Z,68.96
2022-08-22T04:07:31.525Z,70.58
2022-08-22T04:08:26.468Z,69.45
2022-08-22T04:09:24.354Z,71.54
2022-08-22T04:10:24.324Z,70.74
2022-08-22T04:11:24.313Z,67.51
2022-08-22T04:12:24.311Z,69.61
2022-08-22T04:13:24.770Z,71.38
2022-08-22T04:14:24.305Z,69.45
2022-08-22T04:15:24.313Z,68.80
2022-08-22T04:16:24.292Z,74.77
2022-08-22T04:17:24.278Z,69.93
2022-08-22T04:18:24.260Z,69.45
2022-08-22T04:19:24.259Z,70.42
2022-08-22T04:20:24.276Z,67.19
2022-08-22T04:21:24.256Z,68.00
2022-08-22T04:22:24.252Z,70.09
2022-08-22T04:23:24.220Z,70.74
2022-08-22T04:24:24.217Z,69.29
2022-08-22T04:25:24.209Z,71.06
2022-08-22T04:26:24.217Z,69.93
2022-08-22T04:27:24.179Z,75.09
2022-08-22T04:28:24.174Z,71.38
2022-08-22T04:29:24.170Z,71.06
2022-08-22T04:30:24.164Z,70.74
2022-08-22T04:31:24.170Z,69.29
2022-08-22T04:32:24.173Z,68.32
2022-08-22T04:33:24.161Z,69.13
2022-08-22T04:34:24.162Z,68.96
2022-08-22T04:35:24.130Z,70.42
2022-08-22T04:36:24.135Z,68.80
2022-08-22T04:37:24.140Z,70.09
2022-08-22T04:38:24.098Z,75.09
2022-08-22T04:39:24.092Z,69.93
2022-08-22T04:40:24.190Z,70.25
2022-08-22T04:41:24.125Z,70.90
2022-08-22T04:42:33.079Z,73.32
2022-08-22T04:43:25.099Z,70.25
2022-08-22T04:44:24.061Z,70.42
2022-08-22T04:45:24.043Z,68.32
2022-08-22T04:46:24.045Z,69.77
2022-08-22T04:47:25.086Z,70.42
2022-08-22T04:48:24.042Z,68.16
2022-08-22T04:49:24.041Z,70.58
2022-08-22T04:50:23.998Z,70.42
2022-08-22T04:51:24.006Z,70.42
2022-08-22T04:52:23.990Z,69.93
2022-08-22T04:53:25.001Z,69.93
2022-08-22T04:54:23.994Z,68.32
2022-08-22T04:55:23.968Z,68.32
2022-08-22T04:56:23.979Z,71.54
2022-08-22T04:57:23.947Z,70.09
2022-08-22T04:58:24.092Z,70.42
2022-08-22T04:59:24.029Z,68.96
2022-08-22T05:00:23.960Z,70.58
2022-08-22T05:01:23.965Z,70.09
2022-08-22T05:02:23.919Z,70.09
2022-08-22T05:03:23.910Z,70.09
2022-08-22T05:04:23.919Z,71.06
2022-08-22T05:05:23.889Z,70.09
2022-08-22T05:06:23.872Z,71.38
2022-08-22T05:07:23.868Z,70.09
2022-08-22T05:08:23.865Z,69.13
2022-08-22T05:09:23.857Z,68.64
2022-08-22T05:10:23.868Z,72.99
2022-08-22T05:11:23.842Z,69.29
2022-08-22T05:12:23.838Z,69.61
2022-08-22T05:13:24.843Z,70.42
2022-08-22T05:14:23.825Z,69.13
2022-08-22T05:15:23.834Z,70.58
2022-08-22T05:16:23.822Z,70.42
2022-08-22T05:17:23.804Z,70.74
2022-08-22T05:18:23.794Z,70.42
2022-08-22T05:19:31.125Z,70.09
2022-08-22T05:20:24.791Z,70.42
2022-08-22T05:21:23.766Z,68.96
2022-08-22T05:22:23.758Z,67.51
2022-08-22T05:23:23.753Z,67.84
2022-08-22T05:24:23.740Z,68.00
2022-08-22T05:25:23.724Z,69.61
2022-08-22T05:26:23.750Z,67.51
2022-08-22T05:27:23.717Z,68.00
2022-08-22T05:28:23.705Z,72.19
2022-08-22T05:29:23.697Z,68.32
2022-08-22T05:30:23.702Z,67.84
2022-08-22T05:31:23.972Z,68.96
2022-08-22T05:32:23.703Z,68.80
2022-08-22T05:33:23.726Z,69.29
2022-08-22T05:34:23.658Z,66.39
2022-08-22T05:35:23.651Z,67.84
2022-08-22T05:36:23.640Z,69.29
2022-08-22T05:37:23.644Z,66.87
2022-08-22T05:38:23.642Z,67.03
2022-08-22T05:39:25.246Z,67.03
2022-08-22T05:40:23.834Z,68.16
2022-08-22T05:41:23.598Z,66.87
2022-08-22T05:42:23.591Z,66.71
2022-08-22T05:43:23.612Z,68.32
2022-08-22T05:44:23.621Z,67.68
2022-08-22T05:45:23.564Z,67.03
2022-08-22T05:46:27.303Z,66.87
2022-08-22T05:47:23.662Z,66.39
2022-08-22T05:48:23.565Z,66.55
2022-08-22T05:49:23.526Z,67.19
2022-08-22T05:50:23.525Z,68.64
2022-08-22T05:51:23.537Z,67.68
2022-08-22T05:52:24.918Z,67.19
2022-08-22T05:53:23.519Z,66.55
2022-08-22T05:54:34.265Z,68.32
2022-08-22T05:55:24.482Z,67.68
2022-08-22T05:56:23.568Z,68.00
2022-08-22T05:57:23.462Z,67.03
2022-08-22T05:58:23.466Z,69.13
2022-08-22T05:59:23.477Z,66.55
2022-08-22T06:00:23.452Z,68.96
2022-08-22T06:01:23.487Z,67.19
2022-08-22T06:02:23.437Z,66.71
2022-08-22T06:03:23.439Z,65.42
2022-08-22T06:04:23.457Z,67.84
2022-08-22T06:05:23.393Z,65.90
2022-08-22T06:06:23.389Z,66.87
2022-08-22T06:07:23.384Z,68.32
2022-08-22T06:08:23.446Z,65.10
2022-08-22T06:09:23.367Z,66.87
2022-08-22T06:10:23.401Z,68.96
2022-08-22T06:11:23.347Z,66.39
2022-08-22T06:12:23.355Z,66.06
2022-08-22T06:13:24.631Z,66.71
2022-08-22T06:14:24.696Z,66.23
2022-08-22T06:15:23.322Z,64.94
2022-08-22T06:16:23.351Z,67.84
2022-08-22T06:17:23.312Z,66.39
2022-08-22T06:18:23.291Z,67.68
2022-08-22T06:19:23.276Z,65.42
2022-08-22T06:20:23.278Z,65.90
2022-08-22T06:21:23.264Z,69.77
2022-08-22T06:22:23.286Z,66.71
2022-08-22T06:23:23.254Z,66.06
2022-08-22T06:24:23.256Z,65.74
2022-08-22T06:25:23.247Z,66.06
2022-08-22T06:26:23.234Z,66.39
2022-08-22T06:27:23.255Z,69.13
2022-08-22T06:28:23.235Z,65.58
2022-08-22T06:29:23.338Z,65.26
2022-08-22T06:30:23.202Z,65.74
2022-08-22T06:31:23.199Z,68.00
2022-08-22T06:32:30.636Z,66.23
2022-08-22T06:33:24.169Z,67.03
2022-08-22T06:34:23.180Z,68.80
2022-08-22T06:35:23.171Z,64.13
2022-08-22T06:36:23.145Z,65.74
2022-08-22T06:37:23.138Z,67.19
2022-08-22T06:38:23.163Z,68.16
2022-08-22T06:39:23.121Z,66.39
2022-08-22T06:40:23.228Z,67.51
2022-08-22T06:41:23.111Z,66.39
2022-08-22T06:42:23.105Z,66.55
2022-08-22T06:43:23.093Z,68.16
2022-08-22T06:44:23.112Z,65.10
2022-08-22T06:45:23.082Z,64.13
2022-08-22T06:46:23.075Z,67.51
2022-08-22T06:47:23.078Z,67.19
2022-08-22T06:48:23.053Z,65.26
2022-08-22T06:49:23.056Z,66.71
2022-08-22T06:50:23.741Z,66.39
2022-08-22T06:51:23.073Z,68.32
2022-08-22T06:52:23.032Z,66.71
2022-08-22T06:53:23.019Z,66.06
2022-08-22T06:54:23.016Z,66.55
2022-08-22T06:55:23.064Z,67.84
2022-08-22T06:56:22.994Z,65.58
2022-08-22T06:57:22.978Z,65.58
2022-08-22T06:58:22.978Z,67.19
2022-08-22T06:59:22.965Z,67.68
2022-08-22T07:00:23.023Z,65.74
2022-08-22T07:01:23.032Z,64.94
2022-08-22T07:02:22.971Z,63.00
2022-08-22T07:03:23.003Z,66.39
2022-08-22T07:04:22.985Z,65.74
2022-08-22T07:05:22.937Z,66.06
2022-08-22T07:06:22.956Z,58.01
2022-08-22T07:07:22.908Z,60.26
2022-08-22T07:08:22.894Z,64.94
2022-08-22T07:09:22.886Z,63.81
2022-08-22T07:10:22.875Z,64.94
2022-08-22T07:11:22.867Z,62.20
2022-08-22T07:12:22.898Z,59.78
2022-08-22T07:13:22.845Z,63.33
2022-08-22T07:14:22.843Z,65.42
2022-08-22T07:15:22.848Z,63.81
2022-08-22T07:16:22.827Z,64.61
2022-08-22T07:17:22.811Z,62.84
2022-08-22T07:18:22.859Z,63.16
2022-08-22T07:19:22.811Z,67.84
2022-08-22T07:20:22.814Z,64.45
2022-08-22T07:21:23.423Z,64.45
2022-08-22T07:22:22.797Z,66.23
2022-08-22T07:23:22.772Z,68.80
2022-08-22T07:24:22.783Z,65.26
2022-08-22T07:25:22.791Z,65.58
2022-08-22T07:26:22.791Z,65.58
2022-08-22T07:27:22.759Z,64.29
2022-08-22T07:28:35.843Z,65.42
2022-08-22T07:29:23.772Z,66.87
2022-08-22T07:30:27.858Z,65.74
2022-08-22T07:31:23.713Z,66.87
2022-08-22T07:32:22.740Z,64.94
2022-08-22T07:33:26.702Z,67.51
2022-08-22T07:34:22.755Z,69.77
2022-08-22T07:35:22.711Z,64.61
2022-08-22T07:36:23.272Z,66.06
2022-08-22T07:37:22.682Z,67.35
2022-08-22T07:38:22.691Z,66.06
2022-08-22T07:39:22.669Z,64.29
2022-08-22T07:40:22.736Z,67.35
2022-08-22T07:41:22.659Z,65.26
2022-08-22T07:42:22.657Z,66.06
2022-08-22T07:43:22.615Z,64.78
2022-08-22T07:44:22.613Z,64.13
2022-08-22T07:45:22.708Z,65.74
2022-08-22T07:46:22.601Z,64.45
2022-08-22T07:47:26.709Z,64.94
2022-08-22T07:48:26.070Z,67.03
2022-08-22T07:49:22.736Z,61.39
2022-08-22T07:50:22.583Z,63.16
2022-08-22T07:51:22.588Z,65.42
2022-08-22T07:52:22.558Z,64.29
2022-08-22T07:53:22.620Z,64.45
2022-08-22T07:54:22.538Z,64.78
2022-08-22T07:55:22.532Z,63.33
2022-08-22T07:56:22.814Z,63.16
2022-08-22T07:57:22.547Z,66.06
2022-08-22T07:58:22.575Z,64.94
2022-08-22T07:59:22.499Z,64.45
2022-08-22T08:00:25.648Z,61.23
2022-08-22T08:01:22.579Z,61.87
2022-08-22T08:02:22.518Z,58.97
2022-08-22T08:03:22.497Z,59.14
2022-08-22T08:04:22.465Z,63.49
2022-08-22T08:05:22.469Z,62.04
2022-08-22T08:06:22.471Z,63.16
2022-08-22T08:07:22.440Z,63.00
2022-08-22T08:08:22.655Z,61.07
2022-08-22T08:09:22.436Z,65.74
2022-08-22T08:10:22.438Z,62.52
2022-08-22T08:11:22.972Z,66.71
2022-08-22T08:12:22.399Z,62.68
2022-08-22T08:13:22.407Z,64.29
2022-08-22T08:14:22.390Z,60.75
2022-08-22T08:15:22.417Z,59.14
2022-08-22T08:16:22.623Z,63.81
2022-08-22T08:17:22.526Z,63.65
2022-08-22T08:18:22.389Z,64.78
2022-08-22T08:19:22.404Z,63.49
2022-08-22T08:20:22.349Z,62.52
2022-08-22T08:21:22.394Z,63.81
2022-08-22T08:22:22.461Z,63.16
2022-08-22T08:23:23.975Z,63.33
2022-08-22T08:24:22.846Z,62.84
2022-08-22T08:25:22.294Z,62.04
2022-08-22T08:26:22.303Z,64.78
2022-08-22T08:27:22.279Z,65.58
2022-08-22T08:28:22.276Z,68.00
2022-08-22T08:29:22.276Z,66.23
2022-08-22T08:30:22.351Z,62.84
2022-08-22T08:31:22.499Z,63.16
2022-08-22T08:32:22.322Z,62.52
2022-08-22T08:33:25.156Z,61.87
2022-08-22T08:34:22.242Z,65.10
2022-08-22T08:35:22.226Z,61.55
2022-08-22T08:36:22.574Z,65.42
2022-08-22T08:37:22.231Z,64.29
2022-08-22T08:38:22.211Z,61.71
2022-08-22T08:39:22.178Z,60.26
2022-08-22T08:40:22.329Z,63.81
2022-08-22T08:41:22.685Z,66.06
2022-08-22T08:42:22.164Z,60.10
2022-08-22T08:43:22.181Z,61.55
2022-08-22T08:44:22.178Z,64.78
2022-08-22T08:45:22.143Z,62.68
2022-08-22T08:46:22.228Z,65.26
2022-08-22T08:47:22.122Z,64.29
2022-08-22T08:48:22.129Z,62.68
2022-08-22T08:49:23.913Z,63.16
2022-08-22T08:50:22.149Z,63.81
2022-08-22T08:51:23.423Z,63.16
2022-08-22T08:52:22.159Z,61.55
2022-08-22T08:53:22.080Z,62.04
2022-08-22T08:54:22.066Z,63.49
2022-08-22T08:55:22.902Z,62.52
2022-08-22T08:56:22.074Z,61.39
2022-08-22T08:57:22.470Z,67.03
2022-08-22T08:58:22.094Z,64.45
2022-08-22T08:59:22.036Z,61.55
2022-08-22T09:00:22.086Z,63.49
2022-08-22T09:01:27.504Z,63.65
2022-08-22T09:02:23.671Z,63.49
2022-08-22T09:03:30.237Z,61.87
2022-08-22T09:04:23.054Z,61.07
2022-08-22T09:05:22.003Z,63.65
2022-08-22T09:06:21.988Z,63.65
2022-08-22T09:07:21.965Z,65.10
2022-08-22T09:08:21.964Z,65.26
2022-08-22T09:09:21.977Z,61.55
2022-08-22T09:10:22.064Z,61.39
2022-08-22T09:11:28.129Z,64.29
2022-08-22T09:12:22.922Z,63.16
2022-08-22T09:13:21.931Z,65.42
2022-08-22T09:14:21.916Z,62.68
2022-08-22T09:15:21.923Z,64.94
2022-08-22T09:16:21.955Z,64.13
2022-08-22T09:17:21.893Z,60.26
2022-08-22T09:18:21.892Z,63.16
2022-08-22T09:19:21.892Z,63.16
2022-08-22T09:20:22.846Z,62.84
2022-08-22T09:21:31.256Z,60.75
2022-08-22T09:22:22.891Z,59.46
2022-08-22T09:23:21.858Z,63.16
2022-08-22T09:24:23.246Z,62.36
2022-08-22T09:25:23.532Z,59.94
2022-08-22T09:26:21.822Z,62.20
2022-08-22T09:27:21.867Z,64.13
2022-08-22T09:28:22.209Z,64.13
2022-08-22T09:29:22.797Z,59.14
2022-08-22T09:30:28.660Z,64.13
2022-08-22T09:32:23.659Z,62.68
2022-08-22T09:33:21.787Z,69.29
2022-08-22T09:34:25.450Z,62.84
2022-08-22T09:35:22.398Z,62.04
2022-08-22T09:36:21.752Z,60.59
2022-08-22T09:37:21.746Z,58.01
2022-08-22T09:38:21.746Z,61.07
2022-08-22T09:39:21.744Z,63.65
2022-08-22T09:41:21.712Z,61.07
2022-08-22T09:42:21.724Z,64.13
2022-08-22T09:43:22.855Z,64.13
2022-08-22T09:44:21.670Z,63.33
2022-08-22T09:45:23.871Z,63.16
2022-08-22T09:46:21.669Z,59.78
2022-08-22T09:47:24.607Z,61.71
2022-08-22T09:48:21.645Z,59.94
2022-08-22T09:49:21.656Z,62.36
2022-08-22T09:50:21.778Z,63.33
2022-08-22T09:51:31.760Z,59.94
2022-08-22T09:52:32.038Z,60.75
2022-08-22T09:53:22.654Z,64.61
2022-08-22T09:54:21.610Z,71.22
2022-08-22T09:55:34.899Z,68.96
2022-08-22T09:56:22.639Z,65.26
2022-08-22T09:57:22.494Z,63.65
2022-08-22T09:58:21.671Z,75.25
2022-08-22T09:59:21.562Z,72.19
2022-08-22T10:00:22.087Z,63.49
2022-08-22T10:01:21.585Z,64.13
2022-08-22T10:02:21.772Z,62.04
2022-08-22T10:03:21.572Z,69.29
2022-08-22T10:04:21.542Z,63.00
2022-08-22T10:05:40.513Z,66.23
2022-08-22T10:06:22.522Z,65.42
2022-08-22T10:07:21.566Z,69.61
2022-08-22T10:08:26.207Z,60.26
2022-08-22T10:09:31.181Z,64.94
2022-08-22T10:10:22.473Z,62.52
2022-08-22T10:11:21.481Z,62.20
2022-08-22T10:12:24.774Z,61.71
2022-08-22T10:13:21.458Z,63.00
2022-08-22T10:14:22.202Z,61.71
2022-08-22T10:15:21.517Z,62.52
2022-08-22T10:16:21.463Z,64.45
2022-08-22T10:17:21.959Z,61.07
2022-08-22T10:18:21.427Z,64.61
2022-08-22T10:19:21.501Z,62.20
2022-08-22T10:20:21.413Z,63.97
2022-08-22T10:21:21.407Z,60.59
2022-08-22T10:22:21.384Z,63.16
2022-08-22T10:23:21.402Z,65.90
2022-08-22T10:24:25.769Z,61.55
2022-08-22T10:25:21.389Z,67.68
2022-08-22T10:26:22.847Z,64.45
2022-08-22T10:27:21.359Z,60.91
2022-08-22T10:28:21.348Z,62.84
2022-08-22T10:29:21.339Z,63.49
2022-08-22T10:30:21.395Z,64.29
2022-08-22T10:31:21.385Z,63.00
2022-08-22T10:32:21.321Z,65.58
2022-08-22T10:33:22.845Z,63.00
2022-08-22T10:34:21.306Z,61.39
2022-08-22T10:35:21.303Z,66.55
2022-08-22T10:36:21.314Z,63.16
2022-08-22T10:37:23.856Z,60.10
2022-08-22T10:38:21.267Z,64.13
2022-08-22T10:39:22.287Z,63.81
2022-08-22T10:40:21.332Z,66.06
2022-08-22T10:41:22.633Z,63.97
2022-08-22T10:42:23.151Z,59.94
2022-08-22T10:43:29.340Z,61.71
2022-08-22T10:44:21.354Z,62.68
2022-08-22T10:45:23.527Z,64.29
2022-08-22T10:46:22.237Z,63.00
2022-08-22T10:47:21.269Z,60.10
2022-08-22T10:48:21.282Z,64.45
2022-08-22T10:49:22.467Z,59.46
2022-08-22T10:50:22.259Z,64.13
2022-08-22T10:51:21.210Z,62.20
2022-08-22T10:52:21.201Z,61.71
2022-08-22T10:53:28.277Z,61.07
2022-08-22T10:54:22.207Z,62.68
2022-08-22T10:55:21.137Z,59.62
2022-08-22T10:56:21.336Z,61.71
2022-08-22T10:57:21.157Z,62.36
2022-08-22T10:58:21.772Z,63.33
2022-08-22T10:59:22.853Z,65.26
2022-08-22T11:00:22.800Z,63.65
2022-08-22T11:01:41.052Z,62.84
2022-08-22T11:02:22.078Z,61.55
2022-08-22T11:03:23.428Z,63.00
2022-08-22T11:04:21.091Z,63.16
2022-08-22T11:05:22.088Z,65.10
2022-08-22T11:06:21.135Z,64.29
2022-08-22T11:07:21.374Z,65.90
2022-08-22T11:08:21.044Z,63.49
2022-08-22T11:09:21.089Z,65.74
2022-08-22T11:10:21.029Z,65.74
2022-08-22T11:11:21.019Z,64.45
2022-08-22T11:12:21.011Z,66.06
2022-08-22T11:13:21.075Z,63.65
2022-08-22T11:14:20.996Z,62.84
2022-08-22T11:15:34.371Z,65.10
2022-08-22T11:16:22.011Z,63.33
2022-08-22T11:17:27.876Z,63.81
2022-08-22T11:18:21.988Z,63.49
2022-08-22T11:19:20.983Z,64.29
2022-08-22T11:20:21.408Z,63.65
2022-08-22T11:21:20.939Z,64.61
2022-08-22T11:22:21.009Z,65.74
2022-08-22T11:23:20.931Z,66.06
2022-08-22T11:24:34.694Z,65.90
2022-08-22T11:25:35.689Z,66.55
2022-08-22T11:26:33.497Z,61.87
2022-08-22T11:27:21.947Z,65.90
2022-08-22T11:28:21.919Z,66.39
2022-08-22T11:29:20.890Z,66.39
2022-08-22T11:30:20.934Z,63.00
2022-08-22T11:31:20.863Z,62.36
2022-08-22T11:32:20.854Z,66.71
2022-08-22T11:33:20.918Z,67.51
2022-08-22T11:34:21.870Z,64.78
2022-08-22T11:35:20.846Z,63.00
2022-08-22T11:36:27.221Z,63.65
2022-08-22T11:37:23.983Z,64.29
2022-08-22T11:38:21.810Z,62.04
2022-08-22T11:39:20.816Z,65.26
2022-08-22T11:40:20.883Z,68.00
2022-08-22T11:41:20.828Z,63.16
2022-08-22T11:42:21.932Z,66.39
2022-08-22T11:43:20.787Z,64.78
2022-08-22T11:44:20.774Z,68.48
2022-08-22T11:45:21.533Z,64.78
2022-08-22T11:46:20.786Z,64.61
2022-08-22T11:47:20.787Z,63.16
2022-08-22T11:48:21.738Z,65.26
2022-08-22T11:49:20.762Z,67.03
2022-08-22T11:50:21.730Z,63.65
2022-08-22T11:51:24.978Z,64.78
2022-08-22T11:52:20.708Z,64.29
2022-08-22T11:53:20.733Z,63.81
2022-08-22T11:54:20.701Z,64.13
2022-08-22T11:55:21.723Z,63.97
2022-08-22T11:56:20.685Z,64.29
2022-08-22T11:57:20.684Z,62.68
2022-08-22T11:58:20.897Z,63.33
2022-08-22T11:59:20.662Z,64.29
2022-08-22T12:00:20.992Z,64.13
2022-08-22T12:01:20.655Z,61.07
2022-08-22T12:02:20.677Z,65.90
2022-08-22T12:03:23.230Z,63.81
2022-08-22T12:04:20.638Z,66.71
2022-08-22T12:05:26.155Z,66.87
2022-08-22T12:06:21.632Z,63.97
2022-08-22T12:07:20.600Z,63.33
2022-08-22T12:08:21.196Z,63.81
2022-08-22T12:09:20.605Z,63.81
2022-08-22T12:10:20.581Z,64.94
2022-08-22T12:11:20.571Z,64.13
2022-08-22T12:12:20.735Z,64.94
2022-08-22T12:13:20.559Z,65.42
2022-08-22T12:14:21.588Z,61.55
2022-08-22T12:15:21.633Z,63.65
2022-08-22T12:16:20.544Z,63.97
2022-08-22T12:17:26.296Z,63.81
2022-08-22T12:18:21.759Z,64.61
2022-08-22T12:19:23.046Z,63.65
2022-08-22T12:20:20.560Z,62.04
2022-08-22T12:21:21.546Z,65.26
2022-08-22T12:22:20.515Z,65.26
2022-08-22T12:23:20.483Z,64.94
2022-08-22T12:24:21.072Z,63.81
2022-08-22T12:25:22.503Z,64.78
2022-08-22T12:26:22.044Z,64.61
2022-08-22T12:27:28.850Z,62.52
2022-08-22T12:28:21.435Z,64.78
2022-08-22T12:29:20.452Z,65.26
2022-08-22T12:32:57.288Z,60.91
2022-08-22T12:33:48.554Z,62.68
2022-08-22T12:34:47.547Z,64.45
2022-08-22T12:35:47.532Z,64.13
2022-08-22T12:36:47.551Z,63.00
2022-08-22T12:37:53.166Z,63.49
2022-08-22T12:38:48.516Z,65.42
2022-08-22T12:39:47.562Z,64.78
2022-08-22T12:40:47.499Z,64.13
2022-08-22T12:41:48.389Z,65.26
2022-08-22T12:42:47.514Z,61.55
2022-08-22T12:43:49.563Z,63.49
2022-08-22T12:44:47.476Z,64.45
2022-08-22T12:45:47.475Z,65.10
2022-08-22T12:46:47.621Z,64.13
2022-08-22T12:47:47.443Z,65.10